Terminal Aerodrome Forecast
Issued by NWS

Home | Current Version | Previous Version | Text Only | Print | Product List | Glossary On
Versions: 1 2 3 4 5 6 7 8 9 10 11 12 13 14 15 16 17 18
026
FTUS45 KVEF 250535
TAFBIH
TAF
KBIH 250535Z 2506/2606 34010KT P6SM VCSH SCT060 OVC090
     FM250800 35010KT P6SM BKN100
     FM251300 34010KT P6SM SCT100
     FM260200 34008KT P6SM FEW100 SCT200=

USA.gov is the U.S. government's official web portal to all federal, state and local government web resources and services.